Meath Environmental Platform

Observations for Trim Market St

Time AQI Temp °C Hum % Pres Pa CO μg/m³ H₂S μg/m³ NO μg/m³ NO₂ μg/m³ O₃ μg/m³ SO₂ μg/m³ PM1 μg/m³ PM2.5 μg/m³ PM10 μg/m³
Wednesday 8 July 2026
15:58 1 43.2 24 67,451 0 12.44 0 9.23 1.37 8.9 2.14 6.34 6.62
15:57 1 43.2 24 67,465 0 1.82 0 4.83 12.37 8.94 2.85 6.89 7.52
15:56 1 43.2 24 67,455 0 8.33 0 0.31 6.14 10.26 2.14 6.33 7.52
15:55 1 43.1 24 67,465 0 14.56 0 4.24 10.54 9.77 2.14 5.78 6.36
15:54 1 43 24 67,451 0 13.78 0 6.06 16.36 9.45 2.85 6.33 6.96
15:53 1 43 24 67,436 0 9.09 0 4.36 2.03 9.41 2.85 6.88 7.57
15:52 1 42.9 24 67,414 0 13.3 0 7.97 4.56 9.14 2.14 6.32 6.95
15:51 1 42.9 24 67,418 0 20.25 0 7.17 17.94 9.43 3.56 6.32 6.95
15:50 1 42.9 24 67,422 0 13.98 0 6.28 5.67 9.69 1.43 5.22 5.74
15:49 1 42.9 24 67,426 0 19.3 0 6.86 3.02 9.58 2.14 5.76 6.34
04:08 1 16.4 78 20,284 0.07 0 0 2.81 10.34 0 0 0.8 4.04
04:07 1 16.4 78 20,573 0.07 0 0.69 3.21 10.67 0 0 1.27 3.46
04:06 1 16.4 78 20,928 0.07 0 0 3.41 11.04 0 0 1.75 4.04
04:05 1 16.4 78 21,335 0.07 0 0 3.62 9.72 0 0 1.75 4.04
04:04 1 16.5 78 21,733 0.06 0 0 4.7 12.67 0 0 1.27 3.46
04:03 1 16.5 77 21,966 0.07 0 0 4.01 10.08 0 0 1.28 3.45
04:02 1 16.5 77 22,097 0.07 0 0 3.61 9.12 0 0 1.28 3.45
04:01 1 16.5 77 22,215 0.07 0 0 3.61 9.44 0 0 0.8 2.87
04:00 1 16.5 77 22,271 0.07 0 0 3.21 9.54 0 0 0.8 2.87
03:59 1 16.5 77 22,330 0.09 0 0.88 4.72 8.63 0 0 0.81 2.86